sensor_id;sensor_type;location;lat;lon;timestamp;pressure;altitude;pressure_sealevel;temperature;humidity
75794;BME280;64418;47.536;19.074;2022-10-23T00:00:37;100745.37;;;10.75;91.25
75794;BME280;64418;47.536;19.074;2022-10-23T00:03:03;100743.28;;;10.77;91.42
75794;BME280;64418;47.536;19.074;2022-10-23T00:05:31;100750.38;;;10.78;91.04
75794;BME280;64418;47.536;19.074;2022-10-23T00:08:00;100746.00;;;10.77;91.15
75794;BME280;64418;47.536;19.074;2022-10-23T00:10:26;100743.28;;;10.77;91.12
75794;BME280;64418;47.536;19.074;2022-10-23T00:12:53;100747.25;;;10.74;90.85
75794;BME280;64418;47.536;19.074;2022-10-23T00:15:20;100745.78;;;10.72;90.71
75794;BME280;64418;47.536;19.074;2022-10-23T00:17:46;100750.34;;;10.71;90.94
75794;BME280;64418;47.536;19.074;2022-10-23T00:20:13;100743.25;;;10.70;90.73
75794;BME280;64418;47.536;19.074;2022-10-23T00:22:40;100737.81;;;10.70;91.38
75794;BME280;64418;47.536;19.074;2022-10-23T00:25:07;100742.22;;;10.71;90.81
75794;BME280;64418;47.536;19.074;2022-10-23T00:27:34;100748.69;;;10.77;90.92
75794;BME280;64418;47.536;19.074;2022-10-23T00:30:00;100760.81;;;10.81;91.33
75794;BME280;64418;47.536;19.074;2022-10-23T00:32:26;100756.69;;;10.85;92.13
75794;BME280;64418;47.536;19.074;2022-10-23T00:34:52;100767.78;;;10.90;91.47
75794;BME280;64418;47.536;19.074;2022-10-23T00:37:18;100763.41;;;10.95;90.97
75794;BME280;64418;47.536;19.074;2022-10-23T00:39:45;100761.16;;;10.99;91.54
75794;BME280;64418;47.536;19.074;2022-10-23T00:42:13;100781.41;;;11.03;90.46
75794;BME280;64418;47.536;19.074;2022-10-23T00:45:10;100791.22;;;11.04;90.32
75794;BME280;64418;47.536;19.074;2022-10-23T00:47:37;100778.69;;;11.03;90.83
75794;BME280;64418;47.536;19.074;2022-10-23T00:50:03;100781.41;;;11.03;90.45
75794;BME280;64418;47.536;19.074;2022-10-23T00:52:29;100782.44;;;11.02;90.30
75794;BME280;64418;47.536;19.074;2022-10-23T00:54:57;100787.22;;;11.00;90.19
75794;BME280;64418;47.536;19.074;2022-10-23T00:57:23;100788.28;;;10.99;90.87
75794;BME280;64418;47.536;19.074;2022-10-23T00:59:49;100796.78;;;10.96;90.86
75794;BME280;64418;47.536;19.074;2022-10-23T01:02:15;100781.75;;;10.93;90.75
75794;BME280;64418;47.536;19.074;2022-10-23T01:04:41;100799.28;;;10.91;90.71
75794;BME280;64418;47.536;19.074;2022-10-23T01:07:11;100797.59;;;10.90;90.92
75794;BME280;64418;47.536;19.074;2022-10-23T01:09:41;100800.50;;;10.88;90.98
75794;BME280;64418;47.536;19.074;2022-10-23T01:12:17;100813.19;;;10.88;90.68
75794;BME280;64418;47.536;19.074;2022-10-23T01:14:51;100783.31;;;10.75;90.86
75794;BME280;64418;47.536;19.074;2022-10-23T01:17:24;100812.56;;;10.86;91.16
75794;BME280;64418;47.536;19.074;2022-10-23T01:20:06;100810.88;;;10.85;91.26
75794;BME280;64418;47.536;19.074;2022-10-23T01:22:53;100816.53;;;10.83;91.30
75794;BME280;64418;47.536;19.074;2022-10-23T01:25:34;100823.81;;;10.83;91.53
75794;BME280;64418;47.536;19.074;2022-10-23T01:28:09;100826.72;;;10.81;91.53
75794;BME280;64418;47.536;19.074;2022-10-23T01:30:39;100835.06;;;10.80;91.60
75794;BME280;64418;47.536;19.074;2022-10-23T01:33:09;100831.69;;;10.78;91.68
75794;BME280;64418;47.536;19.074;2022-10-23T01:35:41;100837.31;;;10.76;91.62
75794;BME280;64418;47.536;19.074;2022-10-23T01:38:11;100827.28;;;10.77;91.61
75794;BME280;64418;47.536;19.074;2022-10-23T01:40:45;100831.91;;;10.76;91.64
75794;BME280;64418;47.536;19.074;2022-10-23T01:43:18;100836.47;;;10.76;91.67
75794;BME280;64418;47.536;19.074;2022-10-23T01:45:48;100836.66;;;10.74;91.54
75794;BME280;64418;47.536;19.074;2022-10-23T01:48:20;100835.81;;;10.74;91.59
75794;BME280;64418;47.536;19.074;2022-10-23T01:50:48;100830.63;;;10.72;91.64
75794;BME280;64418;47.536;19.074;2022-10-23T01:53:14;100827.06;;;10.72;91.41
75794;BME280;64418;47.536;19.074;2022-10-23T01:55:41;100829.13;;;10.70;91.57
75794;BME280;64418;47.536;19.074;2022-10-23T01:58:09;100823.69;;;10.70;91.50
75794;BME280;64418;47.536;19.074;2022-10-23T02:00:38;100829.13;;;10.70;91.51
75794;BME280;64418;47.536;19.074;2022-10-23T02:03:05;100824.53;;;10.70;91.81
75794;BME280;64418;47.536;19.074;2022-10-23T02:05:32;100823.69;;;10.70;91.59
75794;BME280;64418;47.536;19.074;2022-10-23T02:07:59;100830.19;;;10.69;91.69
75794;BME280;64418;47.536;19.074;2022-10-23T02:10:30;100829.50;;;10.67;91.40
75794;BME280;64418;47.536;19.074;2022-10-23T02:13:01;100832.41;;;10.65;91.45
75794;BME280;64418;47.536;19.074;2022-10-23T02:15:30;100816.09;;;10.58;91.44
75794;BME280;64418;47.536;19.074;2022-10-23T02:18:05;100821.13;;;10.61;91.59
75794;BME280;64418;47.536;19.074;2022-10-23T02:20:36;100819.47;;;10.60;92.02
75794;BME280;64418;47.536;19.074;2022-10-23T02:23:11;100820.31;;;10.61;91.84
75794;BME280;64418;47.536;19.074;2022-10-23T02:25:46;100818.41;;;10.61;91.76
75794;BME280;64418;47.536;19.074;2022-10-23T02:28:18;100813.00;;;10.61;92.07
75794;BME280;64418;47.536;19.074;2022-10-23T02:30:46;100808.62;;;10.60;91.60
75794;BME280;64418;47.536;19.074;2022-10-23T02:33:15;100817.78;;;10.59;91.53
75794;BME280;64418;47.536;19.074;2022-10-23T02:35:42;100810.69;;;10.58;91.78
75794;BME280;64418;47.536;19.074;2022-10-23T02:38:30;100814.41;;;10.57;91.62
75794;BME280;64418;47.536;19.074;2022-10-23T02:41:00;100823.59;;;10.56;91.28
75794;BME280;64418;47.536;19.074;2022-10-23T02:43:35;100824.44;;;10.57;91.39
75794;BME280;64418;47.536;19.074;2022-10-23T02:46:07;100823.22;;;10.59;91.35
75794;BME280;64418;47.536;19.074;2022-10-23T02:48:40;100827.37;;;10.62;91.26
75794;BME280;64418;47.536;19.074;2022-10-23T02:51:10;100839.91;;;10.63;91.39
75794;BME280;64418;47.536;19.074;2022-10-23T02:53:47;100842.44;;;10.65;91.30
75794;BME280;64418;47.536;19.074;2022-10-23T02:56:22;100844.09;;;10.66;91.30
75794;BME280;64418;47.536;19.074;2022-10-23T02:58:58;100844.94;;;10.66;91.38
75794;BME280;64418;47.536;19.074;2022-10-23T03:01:32;100847.63;;;10.66;91.34
75794;BME280;64418;47.536;19.074;2022-10-23T03:04:04;100843.47;;;10.63;91.11
75794;BME280;64418;47.536;19.074;2022-10-23T03:06:34;100851.78;;;10.62;91.22
75794;BME280;64418;47.536;19.074;2022-10-23T03:09:03;100857.41;;;10.60;91.52
75794;BME280;64418;47.536;19.074;2022-10-23T03:11:29;100852.81;;;10.61;91.47
75794;BME280;64418;47.536;19.074;2022-10-23T03:13:55;100856.34;;;10.61;91.44
75794;BME280;64418;47.536;19.074;2022-10-23T03:16:23;100861.59;;;10.63;91.50
75794;BME280;64418;47.536;19.074;2022-10-23T03:18:49;100870.75;;;10.62;91.19
75794;BME280;64418;47.536;19.074;2022-10-23T03:21:16;100860.75;;;10.62;91.39
75794;BME280;64418;47.536;19.074;2022-10-23T03:23:42;100868.25;;;10.60;91.43
75794;BME280;64418;47.536;19.074;2022-10-23T03:26:08;100868.88;;;10.62;91.52
75794;BME280;64418;47.536;19.074;2022-10-23T03:28:34;100872.59;;;10.61;91.42
75794;BME280;64418;47.536;19.074;2022-10-23T03:30:59;100866.56;;;10.59;91.62
75794;BME280;64418;47.536;19.074;2022-10-23T03:33:25;100863.19;;;10.57;91.52
75794;BME280;64418;47.536;19.074;2022-10-23T03:35:51;100874.03;;;10.57;91.90
75794;BME280;64418;47.536;19.074;2022-10-23T03:38:21;100872.56;;;10.55;92.15
75794;BME280;64418;47.536;19.074;2022-10-23T03:40:47;100876.28;;;10.54;92.39
75794;BME280;64418;47.536;19.074;2022-10-23T03:43:14;100876.06;;;10.49;92.26
75794;BME280;64418;47.536;19.074;2022-10-23T03:45:40;100878.94;;;10.47;92.08
75794;BME280;64418;47.536;19.074;2022-10-23T03:48:06;100878.94;;;10.47;92.09
75794;BME280;64418;47.536;19.074;2022-10-23T03:50:32;100885.59;;;10.45;91.79
75794;BME280;64418;47.536;19.074;2022-10-23T03:52:58;100884.75;;;10.44;92.01
75794;BME280;64418;47.536;19.074;2022-10-23T03:55:25;100893.06;;;10.43;92.28
75794;BME280;64418;47.536;19.074;2022-10-23T03:57:51;100890.34;;;10.43;92.07
75794;BME280;64418;47.536;19.074;2022-10-23T04:00:17;100889.50;;;10.42;92.03
75794;BME280;64418;47.536;19.074;2022-10-23T04:02:43;100886.78;;;10.42;92.11
75794;BME280;64418;47.536;19.074;2022-10-23T04:05:09;100888.88;;;10.40;92.11
75794;BME280;64418;47.536;19.074;2022-10-23T04:07:35;100894.47;;;10.39;92.45
75794;BME280;64418;47.536;19.074;2022-10-23T04:10:02;100892.16;;;10.36;92.37
75794;BME280;64418;47.536;19.074;2022-10-23T04:12:29;100893.38;;;10.33;92.02
75794;BME280;64418;47.536;19.074;2022-10-23T04:14:55;100896.47;;;10.30;92.21
75794;BME280;64418;47.536;19.074;2022-10-23T04:17:21;100890.63;;;10.27;92.05
75794;BME280;64418;47.536;19.074;2022-10-23T04:19:47;100882.03;;;10.23;92.12
75794;BME280;64418;47.536;19.074;2022-10-23T04:22:13;100886.78;;;10.21;92.47
75794;BME280;64418;47.536;19.074;2022-10-23T04:24:39;100883.63;;;10.18;92.52
75794;BME280;64418;47.536;19.074;2022-10-23T04:27:05;100875.91;;;10.14;92.37
75794;BME280;64418;47.536;19.074;2022-10-23T04:29:31;100874.75;;;10.09;92.32
75794;BME280;64418;47.536;19.074;2022-10-23T04:31:57;100871.19;;;10.08;92.35
75794;BME280;64418;47.536;19.074;2022-10-23T04:34:23;100868.88;;;10.05;92.49
75794;BME280;64418;47.536;19.074;2022-10-23T04:36:48;100859.28;;;10.03;92.41
75794;BME280;64418;47.536;19.074;2022-10-23T04:39:14;100863.66;;;10.04;92.44
75794;BME280;64418;47.536;19.074;2022-10-23T04:41:40;100863.47;;;10.05;92.58
75794;BME280;64418;47.536;19.074;2022-10-23T04:44:06;100867.22;;;10.04;92.53
75794;BME280;64418;47.536;19.074;2022-10-23T04:46:34;100865.53;;;10.03;92.80
75794;BME280;64418;47.536;19.074;2022-10-23T04:49:00;100871.97;;;10.02;92.69
75794;BME280;64418;47.536;19.074;2022-10-23T04:51:26;100864.88;;;10.01;92.60
75794;BME280;64418;47.536;19.074;2022-10-23T04:53:52;100872.16;;;10.01;92.78
75794;BME280;64418;47.536;19.074;2022-10-23T04:56:20;100865.91;;;10.00;92.69
75794;BME280;64418;47.536;19.074;2022-10-23T04:58:46;100873.84;;;10.02;92.61
75794;BME280;64418;47.536;19.074;2022-10-23T05:01:12;100873.44;;;10.05;92.88
75794;BME280;64418;47.536;19.074;2022-10-23T05:03:39;100878.84;;;10.05;92.83
75794;BME280;64418;47.536;19.074;2022-10-23T05:06:05;100885.97;;;10.06;92.71
75794;BME280;64418;47.536;19.074;2022-10-23T05:08:32;100887.81;;;10.05;92.85
75794;BME280;64418;47.536;19.074;2022-10-23T05:10:58;100897.63;;;10.06;92.48
75794;BME280;64418;47.536;19.074;2022-10-23T05:13:23;100884.94;;;10.07;92.46
75794;BME280;64418;47.536;19.074;2022-10-23T05:15:50;100894.75;;;10.08;92.51
75794;BME280;64418;47.536;19.074;2022-10-23T05:18:20;100900.16;;;10.08;92.55
75794;BME280;64418;47.536;19.074;2022-10-23T05:20:53;100903.69;;;10.08;92.70
75794;BME280;64418;47.536;19.074;2022-10-23T05:23:21;100901.81;;;10.09;92.54
75794;BME280;64418;47.536;19.074;2022-10-23T05:25:49;100892.03;;;10.08;92.48
75794;BME280;64418;47.536;19.074;2022-10-23T05:28:15;100881.00;;;10.09;92.56
75794;BME280;64418;47.536;19.074;2022-10-23T05:30:41;100883.91;;;10.08;92.63
75794;BME280;64418;47.536;19.074;2022-10-23T05:33:08;100899.09;;;10.09;92.71
75794;BME280;64418;47.536;19.074;2022-10-23T05:35:35;100900.16;;;10.08;92.92
75794;BME280;64418;47.536;19.074;2022-10-23T05:38:06;100899.09;;;10.09;92.91
75794;BME280;64418;47.536;19.074;2022-10-23T05:40:31;100897.91;;;10.11;92.95
75794;BME280;64418;47.536;19.074;2022-10-23T05:42:57;100896.03;;;10.12;92.68
75794;BME280;64418;47.536;19.074;2022-10-23T05:45:23;100901.94;;;10.16;92.88
75794;BME280;64418;47.536;19.074;2022-10-23T05:47:51;100900.31;;;10.21;93.01
75794;BME280;64418;47.536;19.074;2022-10-23T05:50:17;100905.75;;;10.21;92.72
75794;BME280;64418;47.536;19.074;2022-10-23T05:52:45;100901.25;;;10.28;92.87
75794;BME280;64418;47.536;19.074;2022-10-23T05:55:13;100918.37;;;10.35;92.51
75794;BME280;64418;47.536;19.074;2022-10-23T05:57:38;100917.25;;;10.44;92.38
75794;BME280;64418;47.536;19.074;2022-10-23T06:00:05;100917.31;;;10.51;92.34
75794;BME280;64418;47.536;19.074;2022-10-23T06:02:32;100910.31;;;10.56;91.90
75794;BME280;64418;47.536;19.074;2022-10-23T06:04:57;100916.62;;;10.63;91.54
75794;BME280;64418;47.536;19.074;2022-10-23T06:07:24;100912.94;;;10.71;91.15
75794;BME280;64418;47.536;19.074;2022-10-23T06:09:50;100923.84;;;10.78;91.01
75794;BME280;64418;47.536;19.074;2022-10-23T06:12:17;100930.81;;;10.87;90.84
75794;BME280;64418;47.536;19.074;2022-10-23T06:14:43;100936.91;;;10.95;90.04
75794;BME280;64418;47.536;19.074;2022-10-23T06:17:09;100940.34;;;11.04;89.09
75794;BME280;64418;47.536;19.074;2022-10-23T06:19:35;100940.19;;;11.12;89.11
75794;BME280;64418;47.536;19.074;2022-10-23T06:22:00;100928.94;;;11.15;89.49
75794;BME280;64418;47.536;19.074;2022-10-23T06:24:26;100930.09;;;11.27;89.71
75794;BME280;64418;47.536;19.074;2022-10-23T06:26:52;100936.84;;;11.38;88.38
75794;BME280;64418;47.536;19.074;2022-10-23T06:29:19;100937.34;;;11.48;88.07
75794;BME280;64418;47.536;19.074;2022-10-23T06:31:45;100939.28;;;11.60;88.19
75794;BME280;64418;47.536;19.074;2022-10-23T06:34:11;100947.16;;;11.77;87.76
75794;BME280;64418;47.536;19.074;2022-10-23T06:36:37;100954.31;;;11.91;86.47
75794;BME280;64418;47.536;19.074;2022-10-23T06:39:04;100953.44;;;11.84;85.29
75794;BME280;64418;47.536;19.074;2022-10-23T06:41:30;100955.97;;;11.85;85.33
75794;BME280;64418;47.536;19.074;2022-10-23T06:43:57;100965.44;;;11.96;86.53
75794;BME280;64418;47.536;19.074;2022-10-23T06:46:24;100968.84;;;12.11;84.97
75794;BME280;64418;47.536;19.074;2022-10-23T06:48:50;100965.78;;;12.27;84.21
75794;BME280;64418;47.536;19.074;2022-10-23T06:51:16;100966.25;;;12.44;82.99
75794;BME280;64418;47.536;19.074;2022-10-23T06:53:43;100970.47;;;12.60;83.38
75794;BME280;64418;47.536;19.074;2022-10-23T06:56:09;100963.41;;;12.78;82.65
75794;BME280;64418;47.536;19.074;2022-10-23T06:58:39;100967.00;;;12.98;81.32
75794;BME280;64418;47.536;19.074;2022-10-23T07:01:06;100968.28;;;13.16;82.05
75794;BME280;64418;47.536;19.074;2022-10-23T07:03:34;100974.78;;;13.28;79.65
75794;BME280;64418;47.536;19.074;2022-10-23T07:06:01;100975.19;;;13.44;80.37
75794;BME280;64418;47.536;19.074;2022-10-23T07:08:28;100977.31;;;13.56;79.68
75794;BME280;64418;47.536;19.074;2022-10-23T07:10:54;100976.44;;;13.62;78.03
75794;BME280;64418;47.536;19.074;2022-10-23T07:13:20;100983.56;;;13.69;79.21
75794;BME280;64418;47.536;19.074;2022-10-23T07:15:46;100978.72;;;13.78;78.37
75794;BME280;64418;47.536;19.074;2022-10-23T07:18:11;100979.34;;;13.80;78.89
75794;BME280;64418;47.536;19.074;2022-10-23T07:20:38;100986.91;;;13.78;77.94
75794;BME280;64418;47.536;19.074;2022-10-23T07:23:05;100984.78;;;13.80;78.11
75794;BME280;64418;47.536;19.074;2022-10-23T07:25:31;100988.53;;;13.92;77.92
75794;BME280;64418;47.536;19.074;2022-10-23T07:27:58;100995.81;;;14.11;77.48
75794;BME280;64418;47.536;19.074;2022-10-23T07:30:24;100995.75;;;14.24;75.73
75794;BME280;64418;47.536;19.074;2022-10-23T07:32:50;100994.34;;;14.15;77.51
75794;BME280;64418;47.536;19.074;2022-10-23T07:35:16;100993.22;;;14.36;76.56
75794;BME280;64418;47.536;19.074;2022-10-23T07:37:43;100994.28;;;14.28;75.00
75794;BME280;64418;47.536;19.074;2022-10-23T07:40:10;100992.41;;;14.35;75.83
75794;BME280;64418;47.536;19.074;2022-10-23T07:42:36;100991.75;;;14.40;75.71
75794;BME280;64418;47.536;19.074;2022-10-23T07:45:01;100989.81;;;14.54;74.65
75794;BME280;64418;47.536;19.074;2022-10-23T07:47:27;100992.84;;;14.70;74.39
75794;BME280;64418;47.536;19.074;2022-10-23T07:49:53;100977.03;;;14.85;74.21
75794;BME280;64418;47.536;19.074;2022-10-23T07:52:19;100971.12;;;14.88;72.36
75794;BME280;64418;47.536;19.074;2022-10-23T07:55:05;100967.16;;;14.91;72.55
75794;BME280;64418;47.536;19.074;2022-10-23T07:57:37;100975.50;;;14.96;74.44
75794;BME280;64418;47.536;19.074;2022-10-23T08:00:03;100979.75;;;15.17;72.63
75794;BME280;64418;47.536;19.074;2022-10-23T08:02:29;100983.97;;;15.37;71.53
75794;BME280;64418;47.536;19.074;2022-10-23T08:04:55;100986.56;;;15.57;71.33
75794;BME280;64418;47.536;19.074;2022-10-23T08:07:23;100985.00;;;15.68;71.15
75794;BME280;64418;47.536;19.074;2022-10-23T08:09:49;100980.06;;;15.58;70.68
75794;BME280;64418;47.536;19.074;2022-10-23T08:12:16;100983.59;;;15.83;70.89
75794;BME280;64418;47.536;19.074;2022-10-23T08:14:42;100980.06;;;16.01;69.92
75794;BME280;64418;47.536;19.074;2022-10-23T08:17:08;100978.53;;;16.23;68.92
75794;BME280;64418;47.536;19.074;2022-10-23T08:19:33;100970.00;;;16.31;68.49
75794;BME280;64418;47.536;19.074;2022-10-23T08:21:59;100966.31;;;16.56;67.76
75794;BME280;64418;47.536;19.074;2022-10-23T08:24:24;100973.66;;;16.73;65.11
75794;BME280;64418;47.536;19.074;2022-10-23T08:26:51;100973.06;;;17.01;66.31
75794;BME280;64418;47.536;19.074;2022-10-23T08:29:18;100981.44;;;17.18;65.73
75794;BME280;64418;47.536;19.074;2022-10-23T08:31:44;100975.66;;;16.96;64.92
75794;BME280;64418;47.536;19.074;2022-10-23T08:34:10;100974.84;;;17.07;64.97
75794;BME280;64418;47.536;19.074;2022-10-23T08:36:36;100969.75;;;17.22;64.89
75794;BME280;64418;47.536;19.074;2022-10-23T08:39:11;100980.50;;;17.24;65.09
75794;BME280;64418;47.536;19.074;2022-10-23T08:41:39;100964.84;;;17.01;65.42
75794;BME280;64418;47.536;19.074;2022-10-23T08:44:11;100980.13;;;16.79;66.50
75794;BME280;64418;47.536;19.074;2022-10-23T08:46:43;100978.72;;;17.18;64.19
75794;BME280;64418;47.536;19.074;2022-10-23T08:49:22;100981.84;;;17.45;63.76
75794;BME280;64418;47.536;19.074;2022-10-23T08:51:50;100983.19;;;17.89;62.97
75794;BME280;64418;47.536;19.074;2022-10-23T08:54:21;100979.69;;;18.16;62.37
75794;BME280;64418;47.536;19.074;2022-10-23T08:56:51;100981.50;;;18.51;61.44
75794;BME280;64418;47.536;19.074;2022-10-23T08:59:23;100986.53;;;18.82;59.77
75794;BME280;64418;47.536;19.074;2022-10-23T09:01:54;100972.37;;;19.18;58.73
75794;BME280;64418;47.536;19.074;2022-10-23T09:04:23;100968.72;;;19.30;58.01
75794;BME280;64418;47.536;19.074;2022-10-23T09:06:56;100966.28;;;19.16;58.11
75794;BME280;64418;47.536;19.074;2022-10-23T09:09:37;100976.00;;;18.91;59.00
75794;BME280;64418;47.536;19.074;2022-10-23T09:12:11;100976.00;;;18.62;60.14
75794;BME280;64418;47.536;19.074;2022-10-23T09:15:00;100971.44;;;18.68;60.06
75794;BME280;64418;47.536;19.074;2022-10-23T09:17:29;100980.34;;;18.47;60.51
75794;BME280;64418;47.536;19.074;2022-10-23T09:20:00;100984.41;;;18.33;60.40
75794;BME280;64418;47.536;19.074;2022-10-23T09:22:30;100977.97;;;18.39;60.19
75794;BME280;64418;47.536;19.074;2022-10-23T09:24:56;100980.59;;;18.34;60.66
75794;BME280;64418;47.536;19.074;2022-10-23T09:27:21;100977.38;;;18.77;60.10
75794;BME280;64418;47.536;19.074;2022-10-23T09:29:48;100975.72;;;18.92;59.37
75794;BME280;64418;47.536;19.074;2022-10-23T09:32:14;100971.53;;;19.01;58.38
75794;BME280;64418;47.536;19.074;2022-10-23T09:34:51;100973.69;;;19.16;58.59
75794;BME280;64418;47.536;19.074;2022-10-23T09:37:22;100975.81;;;19.26;57.46
75794;BME280;64418;47.536;19.074;2022-10-23T09:39:48;100976.53;;;19.38;57.70
75794;BME280;64418;47.536;19.074;2022-10-23T09:42:24;100982.94;;;19.27;58.05
75794;BME280;64418;47.536;19.074;2022-10-23T09:44:51;100989.69;;;19.36;58.08
75794;BME280;64418;47.536;19.074;2022-10-23T09:47:18;100991.56;;;19.63;57.59
75794;BME280;64418;47.536;19.074;2022-10-23T09:49:47;100990.38;;;19.76;56.98
75794;BME280;64418;47.536;19.074;2022-10-23T09:52:24;100983.19;;;19.92;56.82
75794;BME280;64418;47.536;19.074;2022-10-23T09:54:54;100984.03;;;19.92;55.80
75794;BME280;64418;47.536;19.074;2022-10-23T09:57:22;100982.69;;;19.95;56.70
75794;BME280;64418;47.536;19.074;2022-10-23T09:59:50;100987.66;;;19.98;56.37
75794;BME280;64418;47.536;19.074;2022-10-23T10:02:23;100996.59;;;18.77;60.07
75794;BME280;64418;47.536;19.074;2022-10-23T10:04:50;100994.53;;;18.84;59.95
75794;BME280;64418;47.536;19.074;2022-10-23T10:07:18;100981.16;;;19.04;59.27
75794;BME280;64418;47.536;19.074;2022-10-23T10:09:46;100989.09;;;19.34;58.04
75794;BME280;64418;47.536;19.074;2022-10-23T10:12:19;100990.97;;;18.83;60.07
75794;BME280;64418;47.536;19.074;2022-10-23T10:14:57;100980.91;;;18.49;61.30
75794;BME280;64418;47.536;19.074;2022-10-23T10:17:34;100988.59;;;18.75;60.42
75794;BME280;64418;47.536;19.074;2022-10-23T10:20:23;100969.72;;;19.07;59.58
75794;BME280;64418;47.536;19.074;2022-10-23T10:22:56;100964.59;;;19.44;58.50
75794;BME280;64418;47.536;19.074;2022-10-23T10:25:31;100962.00;;;19.70;57.33
75794;BME280;64418;47.536;19.074;2022-10-23T10:28:11;100946.59;;;19.91;56.74
75794;BME280;64418;47.536;19.074;2022-10-23T10:30:48;100948.03;;;20.15;56.40
75794;BME280;64418;47.536;19.074;2022-10-23T10:33:25;100947.59;;;20.24;56.27
75794;BME280;64418;47.536;19.074;2022-10-23T10:35:58;100941.16;;;20.35;55.81
75794;BME280;64418;47.536;19.074;2022-10-23T10:38:46;100934.69;;;20.46;55.59
75794;BME280;64418;47.536;19.074;2022-10-23T10:41:38;100947.41;;;20.52;55.53
75794;BME280;64418;47.536;19.074;2022-10-23T10:44:21;100943.50;;;20.48;54.45
75794;BME280;64418;47.536;19.074;2022-10-23T10:46:57;100931.16;;;20.29;55.57
75794;BME280;64418;47.536;19.074;2022-10-23T10:49:27;100940.41;;;19.12;57.23
75794;BME280;64418;47.536;19.074;2022-10-23T10:52:04;100932.50;;;19.16;58.18
75794;BME280;64418;47.536;19.074;2022-10-23T10:54:41;100924.78;;;18.68;59.33
75794;BME280;64418;47.536;19.074;2022-10-23T10:57:19;100930.97;;;17.72;62.33
75794;BME280;64418;47.536;19.074;2022-10-23T10:59:50;100930.91;;;18.18;61.73
75794;BME280;64418;47.536;19.074;2022-10-23T11:02:25;100922.94;;;18.73;59.94
75794;BME280;64418;47.536;19.074;2022-10-23T11:04:56;100912.94;;;19.12;58.51
75794;BME280;64418;47.536;19.074;2022-10-23T11:07:28;100912.09;;;19.29;58.14
75794;BME280;64418;47.536;19.074;2022-10-23T11:09:59;100909.44;;;19.67;57.43
75794;BME280;64418;47.536;19.074;2022-10-23T11:12:29;100906.12;;;20.08;56.47
75794;BME280;64418;47.536;19.074;2022-10-23T11:14:55;100892.03;;;20.27;56.25
75794;BME280;64418;47.536;19.074;2022-10-23T11:17:24;100882.75;;;20.54;55.22
75794;BME280;64418;47.536;19.074;2022-10-23T11:19:58;100892.97;;;20.59;55.25
75794;BME280;64418;47.536;19.074;2022-10-23T11:22:30;100889.88;;;20.82;54.28
75794;BME280;64418;47.536;19.074;2022-10-23T11:28:24;100891.75;;;21.03;53.49
75794;BME280;64418;47.536;19.074;2022-10-23T11:31:07;100890.72;;;20.83;54.20
75794;BME280;64418;47.536;19.074;2022-10-23T11:36:44;100881.41;;;20.13;56.43
75794;BME280;64418;47.536;19.074;2022-10-23T11:39:18;100888.13;;;20.23;56.10
75794;BME280;64418;47.536;19.074;2022-10-23T11:41:50;100895.06;;;20.47;55.67
75794;BME280;64418;47.536;19.074;2022-10-23T11:44:39;100894.06;;;20.58;55.56
75794;BME280;64418;47.536;19.074;2022-10-23T11:47:25;100881.91;;;20.54;55.61
75794;BME280;64418;47.536;19.074;2022-10-23T11:50:13;100861.31;;;20.88;54.45
75794;BME280;64418;47.536;19.074;2022-10-23T11:52:51;100875.47;;;21.34;53.65
75794;BME280;64418;47.536;19.074;2022-10-23T11:55:19;100870.81;;;21.07;53.79
75794;BME280;64418;47.536;19.074;2022-10-23T12:01:21;100887.56;;;20.69;55.39
75794;BME280;64418;47.536;19.074;2022-10-23T12:03:52;100875.62;;;20.90;54.39
75794;BME280;64418;47.536;19.074;2022-10-23T12:06:26;100875.88;;;20.57;55.26
75794;BME280;64418;47.536;19.074;2022-10-23T12:08:55;100872.75;;;20.48;55.00
75794;BME280;64418;47.536;19.074;2022-10-23T12:11:39;100868.75;;;19.69;57.01
75794;BME280;64418;47.536;19.074;2022-10-23T12:14:24;100866.84;;;19.14;58.63
75794;BME280;64418;47.536;19.074;2022-10-23T12:16:51;100871.03;;;19.39;57.87
75794;BME280;64418;47.536;19.074;2022-10-23T12:19:21;100873.16;;;19.70;57.07
75794;BME280;64418;47.536;19.074;2022-10-23T12:21:52;100862.38;;;19.85;57.20
75794;BME280;64418;47.536;19.074;2022-10-23T12:27:27;100846.56;;;19.97;56.81
75794;BME280;64418;47.536;19.074;2022-10-23T12:30:11;100840.56;;;19.79;57.48
75794;BME280;64418;47.536;19.074;2022-10-23T12:33:03;100834.47;;;19.38;58.38
75794;BME280;64418;47.536;19.074;2022-10-23T12:38:28;100843.53;;;18.84;60.94
75794;BME280;64418;47.536;19.074;2022-10-23T12:40:55;100834.19;;;19.01;60.54
75794;BME280;64418;47.536;19.074;2022-10-23T12:43:26;100835.41;;;19.44;60.09
75794;BME280;64418;47.536;19.074;2022-10-23T12:45:54;100826.22;;;19.55;59.49
75794;BME280;64418;47.536;19.074;2022-10-23T12:48:23;100822.38;;;19.17;59.79
75794;BME280;64418;47.536;19.074;2022-10-23T12:50:50;100823.13;;;19.13;60.07
75794;BME280;64418;47.536;19.074;2022-10-23T12:53:17;100822.06;;;18.64;61.00
75794;BME280;64418;47.536;19.074;2022-10-23T12:55:48;100819.84;;;18.04;62.67
75794;BME280;64418;47.536;19.074;2022-10-23T12:58:20;100812.19;;;18.06;63.09
75794;BME280;64418;47.536;19.074;2022-10-23T13:00:50;100810.97;;;18.14;62.70
75794;BME280;64418;47.536;19.074;2022-10-23T13:03:16;100801.69;;;17.75;63.40
75794;BME280;64418;47.536;19.074;2022-10-23T13:05:43;100803.37;;;17.53;64.72
75794;BME280;64418;47.536;19.074;2022-10-23T13:08:10;100796.72;;;18.00;62.96